Airfield :
LOGIN :

Register | Disclaimer

   EN    FR    IT 

 










Legend :    VFR   Marginal VFR   IFR   Intensive IFR   Very Intensive IFR
Visi :
Ceiling :
>= 8 km
>= 3000ft
5 to 8 km
1000 to 3000 ft
1500m to 5 km
500 to 1000 ft
800 to 1500m
200 to 500 ft
< 800m
< 200 ft
Symbols :   Thunderstorms  Fog  Heavy snow  Heavy precipitations  Wind > 20 kt
SIGMETs :     Misc.  Thunderstorms  Icing  Turbulence  Mountain Waves  Volcanic Ashes







- Airport Elevation : 102 ft
- IATA code : CNG
- Download approach charts


LFBG - Cognac

CURRENT METAR :
  • 222000Z AUTO 22004KT 9999 FEW025 16/14 Q1015

EXPIRED METARs :
  • 221930Z AUTO 23005KT CAVOK 16/13 Q1015
  • 221900Z AUTO 23006KT 9999 FEW025 16/13 Q1014
  • 221830Z AUTO 25006KT 9999 FEW024 SCT078 17/13 Q1014
  • 221800Z AUTO 25009KT 9999 FEW029 SCT060 18/14 Q1014
  • 221730Z AUTO 25010KT 9999 FEW025/// ///CB 19/13 Q1014 TEMPO 25015G25KT 4000 -SHRA

TAF AMD TAF LFBG
Valid from the 22 at 17:00 until the 23 at 15:00 UTC


221710Z 2217/2315 24010KT 9999 SCT030
PROB40
TEMPO 2217/2224 25015G25KT 4000 -SHRA BKN030TCU
PROB40 2303/2307 0800 BCFG SCT003
PROB40
TEMPO 2312/2315 4000 SHRA BKN030TCU
No reported NOTAMs for that airfield.



MET'MAP, your aeronautical weather chart ! - Copyright ORBIFLY December 2007 - Disclaimer

ORBIFLY MET'MAP TEAM :

Programming & Development : Alexandra Zaïnal
Concept & Development : Baudouin d'Aumeries
Co-Development & Prog : Marc-Olivier Méhu
Technical & hardware support : Manuel Goepfert

Contact : metmap@orbifly.com




SOURCES & CREDITS :

   NOAA